Time;durP1;ratioP1;P1;durP2;ratioP2;P2;SDS_P1;SDS_P2;PMS_P1;PMS_P2;Temp;Humidity;BMP_temperature;BMP_pressure;BME280_temperature;BME280_humidity;BME280_pressure;Samples;Min_cycle;Max_cycle;Signal;HPM_P1;HPM_P2
2023/04/17 00:00:42;;;;;;;26.97;17.27;;;8.20;99.90;;;;;;4759253;30;20308;-83
2023/04/17 00:03:11;;;;;;;27.57;16.23;;;8.20;99.90;;;;;;4774122;30;20077;-83
2023/04/17 00:05:37;;;;;;;25.73;16.80;;;8.20;99.90;;;;;;4773328;30;20301;-83
2023/04/17 00:08:03;;;;;;;26.57;16.83;;;8.20;99.90;;;;;;4758523;30;20317;-83
2023/04/17 00:10:29;;;;;;;24.80;16.67;;;8.20;99.90;;;;;;4758651;30;20327;-84
2023/04/17 00:12:54;;;;;;;25.13;16.13;;;8.20;99.90;;;;;;4773762;30;20370;-84
2023/04/17 00:15:20;;;;;;;26.40;17.00;;;8.20;99.90;;;;;;4773173;30;20191;-84
2023/04/17 00:17:46;;;;;;;29.97;17.23;;;8.20;99.90;;;;;;4773485;30;20070;-84
2023/04/17 00:20:12;;;;;;;26.57;16.17;;;8.20;99.90;;;;;;4758476;30;20116;-84
2023/04/17 00:22:38;;;;;;;27.80;17.93;;;8.20;99.90;;;;;;4773710;30;20058;-83
2023/04/17 00:25:04;;;;;;;27.70;18.23;;;8.20;99.90;;;;;;4743872;30;20058;-84
2023/04/17 00:27:30;;;;;;;29.63;17.80;;;8.20;99.90;;;;;;4759066;30;20420;-84
2023/04/17 00:29:55;;;;;;;29.33;18.00;;;8.20;99.90;;;;;;4772842;30;20390;-85
2023/04/17 00:32:21;;;;;;;25.23;17.70;;;8.20;99.90;;;;;;4758340;30;20391;-84
2023/04/17 00:34:49;;;;;;;31.17;19.03;;;8.10;99.90;;;;;;4772613;30;20051;-84
2023/04/17 00:37:15;;;;;;;32.33;18.33;;;8.20;99.90;;;;;;4758092;30;20507;-84
2023/04/17 00:39:41;;;;;;;26.80;18.10;;;8.10;99.90;;;;;;4772795;30;20358;-84
2023/04/17 00:42:07;;;;;;;28.03;18.83;;;8.10;99.90;;;;;;4773611;30;20293;-84
2023/04/17 00:44:33;;;;;;;26.57;18.70;;;8.00;99.90;;;;;;4772689;30;20057;-84
2023/04/17 00:46:59;;;;;;;26.93;18.10;;;8.10;99.90;;;;;;4773428;30;20065;-84
2023/04/17 00:49:25;;;;;;;29.20;19.17;;;8.10;99.90;;;;;;4758022;30;20313;-84
2023/04/17 00:51:52;;;;;;;25.87;18.03;;;8.10;99.90;;;;;;4772594;30;20054;-84
2023/04/17 00:54:19;;;;;;;26.03;17.97;;;8.10;99.90;;;;;;4772923;30;20305;-84
2023/04/17 00:56:45;;;;;;;28.93;18.47;;;8.20;99.90;;;;;;4772052;30;20312;-84
2023/04/17 00:59:14;;;;;;;31.93;19.57;;;8.10;99.90;;;;;;4772536;30;20292;-84
2023/04/17 01:01:40;;;;;;;26.97;18.80;;;8.10;99.90;;;;;;4757935;30;20340;-84
2023/04/17 01:04:08;;;;;;;29.40;18.73;;;8.10;99.90;;;;;;4772325;30;20340;-84
2023/04/17 01:06:35;;;;;;;27.47;17.90;;;8.10;99.90;;;;;;4772274;30;20061;-84
2023/04/17 01:09:01;;;;;;;25.30;18.07;;;8.00;99.90;;;;;;4772318;30;20656;-84
2023/04/17 01:11:28;;;;;;;27.20;18.37;;;8.00;99.90;;;;;;4757162;30;20301;-84
2023/04/17 01:13:53;;;;;;;30.23;19.03;;;8.00;99.90;;;;;;4772849;30;20300;-83
2023/04/17 01:16:19;;;;;;;30.63;19.83;;;8.00;99.90;;;;;;4772138;30;20372;-84
2023/04/17 01:18:47;;;;;;;32.70;19.73;;;8.00;99.90;;;;;;4757743;30;20493;-84
2023/04/17 01:21:13;;;;;;;33.17;19.50;;;8.00;99.90;;;;;;4772388;30;20054;-84
2023/04/17 01:23:44;;;;;;;30.17;19.27;;;8.00;99.90;;;;;;4757487;30;20312;-84
2023/04/17 01:26:17;;;;;;;31.40;20.87;;;8.10;99.90;;;;;;4772692;30;20797;-84
2023/04/17 01:28:49;;;;;;;34.10;22.00;;;8.20;99.90;;;;;;4773131;30;20304;-84
2023/04/17 01:31:15;;;;;;;30.40;20.00;;;8.20;99.90;;;;;;4772324;30;20877;-84
2023/04/17 01:33:41;;;;;;;34.93;21.57;;;8.20;99.90;;;;;;4742899;30;20392;-84
2023/04/17 01:36:07;;;;;;;32.20;20.13;;;8.20;99.90;;;;;;4757537;30;20055;-84
2023/04/17 01:38:33;;;;;;;36.20;21.87;;;8.20;99.90;;;;;;4772216;30;20304;-84
2023/04/17 01:40:58;;;;;;;30.90;20.17;;;8.20;99.90;;;;;;4772478;30;20297;-84
2023/04/17 01:43:24;;;;;;;33.13;21.07;;;8.20;99.90;;;;;;4757409;30;20055;-84
2023/04/17 01:45:50;;;;;;;27.80;19.33;;;8.20;99.90;;;;;;4757720;30;20148;-84
2023/04/17 01:48:16;;;;;;;28.93;19.00;;;8.20;99.90;;;;;;4757147;30;20415;-84
2023/04/17 01:50:41;;;;;;;27.27;19.23;;;8.10;99.90;;;;;;4757143;30;20114;-84
2023/04/17 01:53:07;;;;;;;31.27;19.20;;;8.10;99.90;;;;;;4772285;30;20047;-84
2023/04/17 01:55:33;;;;;;;28.90;19.07;;;8.00;99.90;;;;;;4742664;30;20447;-84
2023/04/17 01:57:58;;;;;;;28.83;18.83;;;8.00;99.90;;;;;;4771569;30;20146;-83
2023/04/17 02:00:24;;;;;;;28.93;19.77;;;8.00;99.90;;;;;;4771790;30;20409;-84
2023/04/17 02:02:50;;;;;;;36.37;21.63;;;8.10;99.90;;;;;;4757099;30;20518;-84
2023/04/17 02:05:16;;;;;;;34.57;21.47;;;8.00;99.90;;;;;;4757341;30;20051;-84
2023/04/17 02:07:41;;;;;;;35.87;23.10;;;8.00;99.90;;;;;;4757797;30;20439;-84
2023/04/17 02:10:07;;;;;;;33.93;22.17;;;8.00;99.90;;;;;;4756940;30;20100;-84
2023/04/17 02:12:33;;;;;;;34.63;22.47;;;8.00;99.90;;;;;;4772085;30;20055;-84
2023/04/17 02:15:00;;;;;;;32.50;20.53;;;8.00;99.90;;;;;;4757185;30;20301;-84
2023/04/17 02:17:26;;;;;;;33.30;20.50;;;8.10;99.90;;;;;;4772687;30;20094;-84
2023/04/17 02:19:51;;;;;;;28.60;19.83;;;8.00;99.90;;;;;;4757383;30;20293;-84
2023/04/17 02:22:17;;;;;;;29.10;20.07;;;8.00;99.90;;;;;;4773007;30;20293;-84
2023/04/17 02:24:43;;;;;;;30.87;20.93;;;8.00;99.90;;;;;;4775395;30;20473;-84
2023/04/17 02:27:09;;;;;;;27.87;20.57;;;8.00;99.90;;;;;;4745562;30;20051;-85
2023/04/17 02:29:35;;;;;;;34.83;21.10;;;7.90;99.90;;;;;;4745681;30;20047;-84
2023/04/17 02:32:00;;;;;;;33.33;21.70;;;7.90;99.90;;;;;;4745579;30;20400;-84
2023/04/17 02:34:26;;;;;;;35.50;23.23;;;7.90;99.90;;;;;;4760168;30;20378;-84
2023/04/17 02:36:52;;;;;;;35.77;22.13;;;7.90;99.90;;;;;;4759765;30;20116;-84
2023/04/17 02:39:17;;;;;;;40.43;24.60;;;8.00;99.90;;;;;;4760006;30;20142;-85
2023/04/17 02:41:43;;;;;;;34.93;22.03;;;8.00;99.90;;;;;;4760239;30;20058;-84
2023/04/17 02:44:09;;;;;;;34.33;23.37;;;8.00;99.90;;;;;;4760648;30;20208;-85
2023/04/17 02:46:35;;;;;;;38.83;23.93;;;8.10;99.90;;;;;;4759749;30;20047;-84
2023/04/17 02:49:00;;;;;;;38.70;23.77;;;8.00;99.90;;;;;;4760176;30;20151;-84
2023/04/17 02:51:26;;;;;;;32.33;22.63;;;8.00;99.90;;;;;;4774001;30;20497;-85
2023/04/17 02:53:52;;;;;;;32.30;23.63;;;8.00;99.90;;;;;;4774672;30;20047;-84
2023/04/17 02:56:17;;;;;;;35.83;22.43;;;8.00;99.90;;;;;;4759613;30;20121;-85
2023/04/17 02:58:44;;;;;;;33.50;22.83;;;8.00;99.90;;;;;;4760558;30;20099;-85
2023/04/17 03:01:10;;;;;;;34.47;23.27;;;8.00;99.90;;;;;;4745173;30;20058;-86
2023/04/17 03:03:40;;;;;;;34.83;23.73;;;7.90;99.90;;;;;;4759398;30;20315;-84
2023/04/17 03:06:07;;;;;;;37.63;23.77;;;7.90;99.90;;;;;;4760426;30;20295;-84
2023/04/17 03:08:34;;;;;;;38.07;23.37;;;7.90;99.90;;;;;;4760292;30;20301;-85
2023/04/17 03:11:01;;;;;;;33.20;21.73;;;7.90;99.90;;;;;;4759312;30;20319;-85
2023/04/17 03:13:27;;;;;;;31.23;20.57;;;7.90;99.90;;;;;;4774201;30;20308;-85
2023/04/17 03:15:53;;;;;;;31.57;20.93;;;7.90;99.90;;;;;;4759378;30;20790;-84
2023/04/17 03:18:18;;;;;;;35.90;20.77;;;7.90;99.90;;;;;;4745462;30;20204;-85
2023/04/17 03:20:44;;;;;;;33.00;20.53;;;7.90;99.90;;;;;;4759328;30;20054;-85
2023/04/17 03:23:10;;;;;;;32.67;20.03;;;7.90;99.90;;;;;;4759444;30;20060;-85
2023/04/17 03:25:36;;;;;;;35.20;21.37;;;7.90;99.90;;;;;;4774048;30;20047;-85
2023/04/17 03:28:02;;;;;;;32.37;21.27;;;7.90;99.90;;;;;;4744577;30;20081;-85
2023/04/17 03:30:28;;;;;;;37.43;22.00;;;7.90;99.90;;;;;;4758808;30;20802;-85
2023/04/17 03:32:54;;;;;;;32.27;20.87;;;7.90;99.90;;;;;;4758884;30;20051;-85
2023/04/17 03:35:20;;;;;;;37.60;22.00;;;7.90;99.90;;;;;;4759437;30;20086;-85
2023/04/17 03:37:45;;;;;;;32.93;20.83;;;7.90;99.90;;;;;;4759164;30;20422;-85
2023/04/17 03:40:11;;;;;;;30.93;20.50;;;7.90;99.90;;;;;;4759187;30;20055;-85
2023/04/17 03:42:37;;;;;;;30.97;19.80;;;7.80;99.90;;;;;;4758978;30;20083;-84
2023/04/17 03:45:03;;;;;;;35.77;21.17;;;7.90;99.90;;;;;;4773781;30;20139;-85
2023/04/17 03:47:29;;;;;;;39.80;21.03;;;7.90;99.90;;;;;;4743949;30;20067;-85
2023/04/17 03:49:55;;;;;;;39.03;20.37;;;7.90;99.90;;;;;;4759365;30;20321;-84
2023/04/17 03:52:20;;;;;;;32.80;20.77;;;7.90;99.90;;;;;;4773974;30;20134;-85
2023/04/17 03:54:48;;;;;;;36.60;20.33;;;7.90;99.90;;;;;;4758855;30;20098;-85
2023/04/17 03:57:14;;;;;;;39.93;21.30;;;7.90;99.90;;;;;;4773352;30;20389;-85
2023/04/17 03:59:40;;;;;;;35.50;21.40;;;7.90;99.90;;;;;;4758736;30;20301;-85
2023/04/17 04:02:05;;;;;;;52.27;21.27;;;7.90;99.90;;;;;;4773374;30;20365;-85
2023/04/17 04:04:31;;;;;;;71.23;20.43;;;7.80;99.90;;;;;;4758704;30;20051;-85
2023/04/17 04:07:00;;;;;;;41.40;21.13;;;7.80;99.90;;;;;;4773337;30;20059;-84
2023/04/17 04:09:26;;;;;;;64.90;19.77;;;7.70;99.90;;;;;;4744822;30;20062;-84
2023/04/17 04:11:52;;;;;;;50.47;19.70;;;7.70;99.90;;;;;;4773608;30;20639;-84
2023/04/17 04:14:18;;;;;;;35.60;20.27;;;7.60;99.90;;;;;;4773486;30;20296;-86
2023/04/17 04:16:43;;;;;;;36.23;20.60;;;7.70;99.90;;;;;;4772684;30;20405;-85
2023/04/17 04:19:10;;;;;;;29.30;20.50;;;7.70;99.90;;;;;;4773159;30;20050;-85
2023/04/17 04:21:36;;;;;;;41.73;20.30;;;7.70;99.90;;;;;;4773200;30;20051;-85
2023/04/17 04:24:02;;;;;;;40.10;18.73;;;7.70;99.90;;;;;;4743468;30;20365;-85
2023/04/17 04:26:27;;;;;;;42.60;20.97;;;7.70;99.90;;;;;;4743669;30;20297;-85
2023/04/17 04:28:53;;;;;;;36.87;20.33;;;7.70;99.90;;;;;;4757979;30;20047;-85
2023/04/17 04:31:19;;;;;;;48.63;21.23;;;7.60;99.90;;;;;;4772646;30;20138;-85
2023/04/17 04:33:45;;;;;;;43.43;21.97;;;7.60;99.90;;;;;;4773360;30;20459;-85
2023/04/17 04:36:12;;;;;;;63.73;21.73;;;7.60;99.90;;;;;;4743417;30;20091;-85
2023/04/17 04:38:41;;;;;;;49.57;20.13;;;7.60;99.90;;;;;;4773128;30;20301;-85
2023/04/17 04:41:09;;;;;;;51.07;21.30;;;7.60;99.90;;;;;;4772876;30;20392;-85
2023/04/17 04:43:35;;;;;;;68.67;20.57;;;7.50;99.90;;;;;;4772524;30;20288;-85
2023/04/17 04:46:02;;;;;;;44.93;20.00;;;7.50;99.90;;;;;;4772404;30;20291;-85
2023/04/17 04:48:27;;;;;;;74.20;18.07;;;7.50;99.90;;;;;;4773471;30;20705;-85
2023/04/17 04:50:57;;;;;;;30.87;18.90;;;7.40;99.90;;;;;;4758499;30;20348;-85
2023/04/17 04:53:23;;;;;;;29.87;18.87;;;7.40;99.90;;;;;;4772416;30;20510;-86
2023/04/17 04:55:49;;;;;;;26.33;18.37;;;7.50;99.90;;;;;;4772620;30;20297;-84
2023/04/17 04:58:15;;;;;;;37.03;18.00;;;7.50;99.90;;;;;;4743284;30;20380;-85
2023/04/17 05:00:41;;;;;;;82.23;18.13;;;7.60;99.90;;;;;;4743253;30;20051;-84
2023/04/17 05:03:06;;;;;;;56.53;17.60;;;7.50;99.90;;;;;;4743451;30;20315;-85
2023/04/17 05:05:32;;;;;;;29.20;17.97;;;7.40;99.90;;;;;;4743646;30;20155;-85
2023/04/17 05:08:01;;;;;;;42.23;18.70;;;7.40;99.90;;;;;;4744344;30;20512;-85
2023/04/17 05:10:27;;;;;;;34.93;19.13;;;7.50;99.90;;;;;;4742619;30;20320;-85
2023/04/17 05:12:53;;;;;;;46.57;19.93;;;7.50;99.90;;;;;;4757742;30;20308;-85
2023/04/17 05:15:19;;;;;;;45.23;19.47;;;7.50;99.90;;;;;;4757709;30;20086;-85
2023/04/17 05:17:45;;;;;;;33.63;18.80;;;7.40;99.90;;;;;;4757760;30;20134;-85
2023/04/17 05:20:11;;;;;;;35.73;19.33;;;7.50;99.90;;;;;;4757841;30;20074;-84
2023/04/17 05:22:37;;;;;;;34.83;20.00;;;7.40;99.90;;;;;;4757699;30;20305;-85
2023/04/17 05:25:03;;;;;;;34.17;19.17;;;7.50;99.90;;;;;;4757579;30;20804;-85
2023/04/17 05:27:29;;;;;;;32.10;19.73;;;7.50;99.90;;;;;;4757952;30;20781;-85
2023/04/17 05:29:55;;;;;;;41.30;19.93;;;7.50;99.90;;;;;;4757462;30;20340;-85
2023/04/17 05:32:21;;;;;;;42.27;21.10;;;7.50;99.90;;;;;;4772183;30;20794;-85
2023/04/17 05:34:47;;;;;;;47.10;21.67;;;7.50;99.90;;;;;;4772313;30;20304;-85
2023/04/17 05:37:13;;;;;;;36.50;21.00;;;7.60;99.90;;;;;;4757580;30;20301;-85
2023/04/17 05:39:39;;;;;;;65.20;21.17;;;7.50;99.90;;;;;;4743193;30;20092;-85
2023/04/17 05:42:04;;;;;;;53.63;21.93;;;7.60;99.90;;;;;;4757520;30;20404;-85
2023/04/17 05:44:31;;;;;;;61.10;24.30;;;7.60;99.90;;;;;;4772272;30;20055;-86
2023/04/17 05:46:59;;;;;;;60.27;23.20;;;7.60;99.90;;;;;;4772155;30;20059;-85
2023/04/17 05:49:28;;;;;;;47.23;21.93;;;7.60;99.90;;;;;;4756988;30;20304;-85
2023/04/17 05:51:53;;;;;;;52.13;22.20;;;7.70;99.90;;;;;;4772628;30;20292;-85
2023/04/17 05:54:19;;;;;;;42.20;21.63;;;7.70;99.90;;;;;;4742784;30;20304;-85
2023/04/17 05:56:46;;;;;;;46.37;20.80;;;7.60;99.90;;;;;;4772453;30;20060;-85
2023/04/17 05:59:11;;;;;;;36.10;20.97;;;7.60;99.90;;;;;;4775637;30;20187;-86
2023/04/17 06:01:38;;;;;;;35.40;19.97;;;7.60;99.90;;;;;;4745941;30;20384;-86
2023/04/17 06:04:04;;;;;;;35.33;17.67;;;7.60;99.90;;;;;;4775455;30;20567;-86
2023/04/17 06:06:30;;;;;;;29.57;16.97;;;7.60;99.90;;;;;;4760925;30;20301;-87
2023/04/17 06:08:59;;;;;;;32.57;18.93;;;7.60;99.90;;;;;;4775889;30;20291;-85
2023/04/17 06:11:25;;;;;;;29.90;18.80;;;7.60;99.90;;;;;;4745777;30;20146;-86
2023/04/17 06:13:50;;;;;;;27.27;18.20;;;7.60;99.90;;;;;;4745766;30;20450;-86
2023/04/17 06:16:16;;;;;;;27.30;17.73;;;7.60;99.90;;;;;;4745922;30;20078;-86
2023/04/17 06:18:42;;;;;;;32.30;18.53;;;7.60;99.90;;;;;;4775645;30;20062;-86
2023/04/17 06:21:08;;;;;;;29.10;18.73;;;7.70;99.90;;;;;;4745720;30;20112;-86
2023/04/17 06:23:34;;;;;;;30.63;18.13;;;7.70;99.90;;;;;;4760367;30;20326;-86
2023/04/17 06:26:00;;;;;;;38.03;17.33;;;7.70;99.90;;;;;;4761045;30;20058;-86
2023/04/17 06:28:25;;;;;;;28.37;18.43;;;7.70;99.90;;;;;;4775054;30;20488;-86
2023/04/17 06:30:51;;;;;;;29.07;18.77;;;7.70;99.90;;;;;;4745326;30;20086;-86
2023/04/17 06:33:17;;;;;;;41.03;19.60;;;7.70;99.90;;;;;;4745476;30;20058;-86
2023/04/17 06:35:42;;;;;;;29.57;18.90;;;7.80;99.90;;;;;;4746227;30;20528;-86
2023/04/17 06:38:08;;;;;;;29.37;18.10;;;7.80;99.90;;;;;;4774863;30;20118;-85
2023/04/17 06:40:34;;;;;;;33.07;19.57;;;7.80;99.90;;;;;;4760040;30;20138;-87
2023/04/17 06:43:00;;;;;;;31.30;19.63;;;7.80;99.90;;;;;;4745349;30;20051;-86
2023/04/17 06:45:25;;;;;;;34.30;20.30;;;7.90;99.90;;;;;;4745273;30;20297;-86
2023/04/17 06:47:51;;;;;;;35.00;21.53;;;7.90;99.90;;;;;;4745248;30;20055;-86
2023/04/17 06:50:17;;;;;;;33.33;21.30;;;7.90;99.90;;;;;;4745016;30;20481;-85
2023/04/17 06:52:43;;;;;;;32.40;20.87;;;7.90;99.90;;;;;;4760024;30;20141;-85
2023/04/17 06:55:09;;;;;;;32.67;19.87;;;8.00;99.90;;;;;;4745600;30;20496;-85
2023/04/17 06:57:35;;;;;;;33.40;19.43;;;8.00;99.90;;;;;;4774176;30;20521;-87
2023/04/17 07:00:02;;;;;;;30.73;19.87;;;8.00;99.90;;;;;;4760529;30;20368;-86
2023/04/17 07:02:28;;;;;;;29.50;19.00;;;8.10;99.90;;;;;;4759578;30;20308;-86
2023/04/17 07:04:53;;;;;;;34.10;19.80;;;8.10;99.90;;;;;;4745652;30;20494;-85
2023/04/17 07:07:20;;;;;;;35.57;20.33;;;8.20;99.90;;;;;;4744700;29;20405;-85
2023/04/17 07:09:47;;;;;;;32.53;20.97;;;8.10;99.90;;;;;;4760154;30;20055;-86
2023/04/17 07:12:13;;;;;;;30.53;18.67;;;8.20;99.90;;;;;;4774312;30;20292;-86
2023/04/17 07:14:39;;;;;;;28.47;18.63;;;8.20;99.90;;;;;;4774937;30;20297;-86
2023/04/17 07:17:06;;;;;;;31.13;20.37;;;8.30;99.90;;;;;;4759438;30;20300;-86
2023/04/17 07:19:32;;;;;;;28.23;18.17;;;8.30;99.90;;;;;;4774151;30;20489;-86
2023/04/17 07:21:58;;;;;;;29.40;18.40;;;8.40;99.90;;;;;;4759292;30;20296;-86
2023/04/17 07:24:24;;;;;;;29.57;19.27;;;8.50;99.90;;;;;;4759544;30;20296;-86
2023/04/17 07:26:50;;;;;;;32.00;19.50;;;8.50;99.90;;;;;;4744575;30;20492;-86
2023/04/17 07:29:15;;;;;;;27.30;17.23;;;8.50;99.90;;;;;;4773818;30;20047;-86
2023/04/17 07:31:41;;;;;;;31.07;18.70;;;8.50;99.90;;;;;;4744625;30;20163;-87
2023/04/17 07:34:07;;;;;;;30.10;18.33;;;8.60;99.90;;;;;;4774036;30;20062;-86
2023/04/17 07:36:33;;;;;;;28.73;17.83;;;8.70;99.90;;;;;;4759248;30;20406;-86
2023/04/17 07:38:58;;;;;;;25.13;16.03;;;8.70;99.90;;;;;;4759152;30;20043;-86
2023/04/17 07:41:24;;;;;;;24.13;17.10;;;8.70;99.90;;;;;;4773803;30;20062;-86
2023/04/17 07:43:50;;;;;;;25.77;16.53;;;8.70;99.90;;;;;;4759806;30;20051;-86
2023/04/17 07:46:16;;;;;;;25.70;17.33;;;8.70;99.90;;;;;;4758977;30;20519;-86
2023/04/17 07:48:41;;;;;;;23.10;15.50;;;8.70;99.90;;;;;;4759695;30;20051;-87
2023/04/17 07:51:07;;;;;;;20.93;14.50;;;8.70;99.90;;;;;;4758639;30;20201;-85
2023/04/17 07:53:35;;;;;;;22.87;15.30;;;8.60;99.90;;;;;;4758797;30;20512;-86
2023/04/17 07:56:01;;;;;;;23.70;15.83;;;8.70;99.90;;;;;;4758799;29;20066;-86
2023/04/17 07:58:26;;;;;;;19.60;13.93;;;8.70;99.90;;;;;;4743748;30;20369;-86
2023/04/17 08:00:52;;;;;;;22.33;15.37;;;8.80;99.90;;;;;;4773475;30;20345;-86
2023/04/17 08:03:20;;;;;;;20.80;14.47;;;8.80;99.90;;;;;;4758702;30;20489;-86
2023/04/17 08:05:47;;;;;;;20.97;14.10;;;8.90;99.90;;;;;;4758606;30;20057;-86
2023/04/17 08:08:14;;;;;;;21.37;16.27;;;8.90;99.90;;;;;;4743841;30;20340;-86
2023/04/17 08:10:40;;;;;;;27.47;16.47;;;9.00;99.90;;;;;;4744114;30;20344;-86
2023/04/17 08:13:06;;;;;;;22.10;15.20;;;9.10;99.90;;;;;;4758731;30;20406;-86
2023/04/17 08:15:32;;;;;;;23.47;17.17;;;9.10;99.90;;;;;;4774020;30;20059;-86
2023/04/17 08:17:58;;;;;;;25.37;17.40;;;9.20;99.90;;;;;;4758536;30;20051;-86
2023/04/17 08:20:24;;;;;;;26.43;17.97;;;9.30;99.90;;;;;;4757922;30;20325;-86
2023/04/17 08:22:49;;;;;;;24.20;17.73;;;9.30;99.90;;;;;;4759093;30;20544;-86
2023/04/17 08:25:18;;;;;;;29.97;19.23;;;9.30;99.90;;;;;;4758447;30;20094;-86
2023/04/17 08:27:44;;;;;;;26.13;17.37;;;9.40;99.90;;;;;;4743587;30;20147;-86
2023/04/17 08:30:11;;;;;;;25.80;17.80;;;9.40;99.90;;;;;;4758194;30;20408;-86
2023/04/17 08:32:42;;;;;;;23.70;17.33;;;9.40;99.90;;;;;;4772745;30;20051;-86
2023/04/17 08:35:12;;;;;;;24.70;17.30;;;9.40;99.90;;;;;;4772996;30;20299;-86
2023/04/17 08:37:43;;;;;;;27.23;17.37;;;9.50;99.90;;;;;;4743714;30;20301;-86
2023/04/17 08:40:10;;;;;;;23.33;16.73;;;9.70;99.90;;;;;;4773697;30;20328;-86
2023/04/17 08:42:36;;;;;;;26.67;18.93;;;9.80;99.90;;;;;;4758095;30;20307;-86
2023/04/17 08:45:08;;;;;;;23.80;17.80;;;10.00;99.90;;;;;;4772826;30;20644;-86
2023/04/17 08:47:35;;;;;;;23.30;17.17;;;10.10;99.90;;;;;;4758262;30;20357;-86
2023/04/17 08:50:20;;;;;;;25.63;17.57;;;10.20;99.90;;;;;;4743303;30;20313;-86
2023/04/17 08:52:48;;;;;;;22.20;16.23;;;10.50;99.90;;;;;;4772298;30;20315;-86
2023/04/17 08:55:23;;;;;;;20.30;15.57;;;10.60;99.90;;;;;;4758033;30;20642;-86
2023/04/17 08:57:57;;;;;;;20.70;15.27;;;10.70;99.90;;;;;;4771923;30;20374;-87
2023/04/17 09:00:28;;;;;;;17.93;14.23;;;10.90;99.90;;;;;;4743994;30;20055;-86
2023/04/17 09:02:55;;;;;;;18.97;14.83;;;11.20;99.90;;;;;;4772584;30;20305;-86
2023/04/17 09:05:22;;;;;;;21.57;15.63;;;11.30;99.90;;;;;;4772611;30;20456;-86
2023/04/17 09:08:10;;;;;;;18.83;14.40;;;11.30;99.90;;;;;;4757699;30;20312;-86
2023/04/17 09:10:39;;;;;;;19.13;15.37;;;11.30;99.90;;;;;;4772645;30;20346;-86
2023/04/17 09:13:07;;;;;;;19.70;15.50;;;11.40;99.90;;;;;;4772484;30;20304;-86
2023/04/17 09:15:33;;;;;;;19.47;15.27;;;11.60;99.90;;;;;;4772508;30;20865;-86
2023/04/17 09:17:59;;;;;;;20.13;15.83;;;11.80;99.90;;;;;;4757710;30;20297;-86
2023/04/17 09:20:25;;;;;;;20.23;14.87;;;12.00;99.90;;;;;;4757718;30;20311;-86
2023/04/17 09:23:04;;;;;;;21.97;15.50;;;12.10;99.90;;;;;;4757494;30;20108;-87
2023/04/17 09:25:30;;;;;;;17.40;14.40;;;12.20;99.90;;;;;;4772433;30;20051;-86
2023/04/17 09:28:13;;;;;;;20.03;15.63;;;12.20;99.90;;;;;;4772380;30;20381;-87
2023/04/17 09:30:42;;;;;;;17.80;13.83;;;12.20;99.90;;;;;;4773306;29;20376;-87
2023/04/17 09:33:10;;;;;;;17.20;14.03;;;12.30;99.90;;;;;;4761619;30;20308;-87
2023/04/17 09:35:37;;;;;;;20.23;15.07;;;12.30;99.90;;;;;;4761714;30;20293;-86
2023/04/17 09:38:04;;;;;;;17.87;14.63;;;12.30;99.90;;;;;;4776164;30;20293;-86
2023/04/17 09:40:40;;;;;;;18.10;14.43;;;12.40;99.90;;;;;;4776579;30;20666;-86
2023/04/17 09:43:09;;;;;;;17.00;15.03;;;12.40;99.90;;;;;;4761314;30;20308;-86
2023/04/17 09:45:38;;;;;;;18.80;14.87;;;12.40;99.90;;;;;;4775920;30;20432;-86
2023/04/17 09:48:06;;;;;;;20.60;13.87;;;12.50;99.90;;;;;;4775810;30;20710;-87
2023/04/17 09:50:33;;;;;;;16.63;13.23;;;12.60;99.90;;;;;;4775830;30;20309;-87
2023/04/17 09:53:00;;;;;;;18.87;13.90;;;12.70;99.90;;;;;;4760790;30;20301;-86
2023/04/17 09:55:29;;;;;;;15.53;12.90;;;12.80;99.90;;;;;;4760828;30;20365;-86
2023/04/17 09:57:56;;;;;;;15.67;13.03;;;12.80;99.90;;;;;;4760850;30;20297;-87
2023/04/17 10:00:25;;;;;;;14.73;11.77;;;12.80;99.90;;;;;;4791415;29;20293;-86
2023/04/17 10:02:52;;;;;;;16.10;12.63;;;12.90;99.90;;;;;;4761237;30;20296;-86
2023/04/17 10:05:20;;;;;;;17.97;13.67;;;12.90;99.90;;;;;;4775490;30;20305;-87
2023/04/17 10:07:46;;;;;;;15.67;12.20;;;12.80;99.90;;;;;;4760637;30;20340;-87
2023/04/17 10:10:24;;;;;;;16.27;11.73;;;12.90;99.90;;;;;;4775281;30;20316;-86
2023/04/17 10:12:52;;;;;;;14.80;11.27;;;12.90;99.90;;;;;;4775754;30;20650;-87
2023/04/17 10:15:18;;;;;;;18.00;12.47;;;12.80;99.90;;;;;;4745933;30;20371;-86
2023/04/17 10:17:45;;;;;;;15.17;12.13;;;12.80;99.90;;;;;;4775250;30;20301;-86
2023/04/17 10:20:14;;;;;;;15.27;11.63;;;12.90;99.90;;;;;;4776068;30;20312;-87
2023/04/17 10:22:41;;;;;;;14.67;12.13;;;12.90;99.90;;;;;;4775304;30;20660;-86
2023/04/17 10:25:12;;;;;;;15.53;12.43;;;13.00;99.90;;;;;;4760585;30;20388;-87
2023/04/17 10:27:41;;;;;;;14.83;11.77;;;13.20;99.90;;;;;;4775162;30;20300;-87
2023/04/17 10:30:15;;;;;;;14.97;12.90;;;13.30;99.90;;;;;;4760372;30;20313;-86
2023/04/17 10:32:44;;;;;;;16.83;13.37;;;13.30;99.90;;;;;;4775386;30;20293;-86
2023/04/17 10:35:16;;;;;;;17.77;13.43;;;13.50;99.90;;;;;;4775354;30;20312;-87
2023/04/17 10:37:50;;;;;;;17.30;14.07;;;13.60;99.90;;;;;;4774971;30;20782;-87
2023/04/17 10:40:35;;;;;;;15.25;12.60;;;13.70;99.90;;;;;;4774863;30;20323;-87
2023/04/17 10:43:18;;;;;;;;;;;13.70;99.90;;;;;;4774488;30;20108;-88
2023/04/17 10:46:09;;;;;;;17.27;12.40;;;13.60;99.90;;;;;;4774971;30;19925;-87
2023/04/17 10:48:55;;;;;;;16.90;12.60;;;13.70;99.90;;;;;;4759948;30;20800;-87
2023/04/17 10:51:20;;;;;;;15.30;11.65;;;13.70;99.90;;;;;;4760607;30;20308;-86
2023/04/17 10:53:48;;;;;;;13.97;10.70;;;13.80;99.90;;;;;;4774452;30;20115;-87
2023/04/17 10:56:25;;;;;;;13.60;11.37;;;13.70;99.90;;;;;;4774449;30;20055;-87
2023/04/17 10:58:55;;;;;;;17.13;12.27;;;13.60;99.90;;;;;;4774876;30;20778;-87
2023/04/17 11:01:25;;;;;;;13.50;11.27;;;13.70;99.90;;;;;;4759928;30;20293;-87
2023/04/17 11:03:51;;;;;;;13.40;10.90;;;13.70;99.90;;;;;;4760000;30;20370;-87
2023/04/17 11:06:18;;;;;;;14.17;11.33;;;13.80;99.90;;;;;;4775281;30;20293;-86
2023/04/17 11:08:44;;;;;;;14.80;12.00;;;13.80;99.90;;;;;;4760047;30;20297;-86
2023/04/17 11:11:12;;;;;;;15.23;11.73;;;13.80;99.90;;;;;;4759242;30;20790;-87
2023/04/17 11:13:44;;;;;;;15.77;11.80;;;13.90;99.90;;;;;;4774012;30;20364;-87
2023/04/17 11:16:10;;;;;;;16.97;12.30;;;13.90;99.90;;;;;;4773725;30;20785;-87
2023/04/17 11:18:37;;;;;;;15.77;12.30;;;14.10;99.90;;;;;;4759594;30;20308;-86
2023/04/17 11:21:03;;;;;;;16.20;11.43;;;14.20;99.90;;;;;;4759484;30;20473;-87
2023/04/17 11:23:32;;;;;;;19.47;12.73;;;14.30;99.90;;;;;;4774166;30;20392;-86
2023/04/17 11:25:59;;;;;;;14.57;11.33;;;14.40;99.90;;;;;;4774969;30;20301;-86
2023/04/17 11:28:25;;;;;;;14.43;11.30;;;14.40;99.90;;;;;;4744756;30;20308;-86
2023/04/17 11:30:51;;;;;;;13.70;11.47;;;14.40;99.90;;;;;;4773957;30;20317;-87
2023/04/17 11:33:17;;;;;;;16.90;11.73;;;14.50;99.90;;;;;;4774105;30;20047;-87
2023/04/17 11:35:42;;;;;;;14.93;12.30;;;14.50;99.90;;;;;;4774710;30;20669;-86
2023/04/17 11:38:22;;;;;;;17.20;13.40;;;14.50;99.90;;;;;;4773980;30;20215;-87
2023/04/17 11:40:54;;;;;;;17.17;11.00;;;14.60;99.90;;;;;;4759177;30;20186;-86
2023/04/17 11:43:21;;;;;;;18.03;11.80;;;14.50;99.90;;;;;;4773524;30;20339;-86
2023/04/17 11:45:56;;;;;;;17.23;12.53;;;14.50;99.90;;;;;;4759139;30;20305;-86
2023/04/17 11:48:26;;;;;;;16.77;11.93;;;14.50;99.90;;;;;;4773847;30;20376;-86
2023/04/17 11:51:02;;;;;;;14.43;12.13;;;14.40;99.90;;;;;;4789562;30;20055;-86
2023/04/17 11:53:28;;;;;;;13.30;11.17;;;14.40;99.90;;;;;;4758888;30;20308;-86
2023/04/17 11:56:15;;;;;;;18.37;12.67;;;14.40;99.90;;;;;;4773648;30;20301;-86
2023/04/17 11:58:51;;;;;;;16.40;11.57;;;14.20;99.90;;;;;;4758120;30;20305;-86
2023/04/17 12:01:19;;;;;;;15.30;12.33;;;14.20;99.90;;;;;;4789753;30;20797;-86
2023/04/17 12:03:46;;;;;;;14.13;11.83;;;14.20;99.90;;;;;;4773650;30;20735;-86
2023/04/17 12:06:12;;;;;;;15.07;12.87;;;14.10;99.90;;;;;;4758716;30;20301;-87
2023/04/17 12:08:52;;;;;;;16.37;13.30;;;14.00;99.90;;;;;;4758675;30;20293;-85
2023/04/17 12:11:34;;;;;;;17.33;13.50;;;14.10;99.90;;;;;;4773920;30;20112;-86
2023/04/17 12:14:01;;;;;;;16.67;14.17;;;14.10;99.90;;;;;;4758798;30;20296;-86
2023/04/17 12:16:28;;;;;;;19.40;15.63;;;14.10;99.90;;;;;;4758832;30;20297;-86
2023/04/17 12:18:54;;;;;;;20.73;14.50;;;14.20;99.90;;;;;;4789166;29;20297;-86
2023/04/17 12:21:20;;;;;;;20.53;14.73;;;14.20;99.90;;;;;;4774000;30;20312;-86
2023/04/17 12:23:46;;;;;;;18.60;14.03;;;14.30;99.90;;;;;;4773214;30;20850;-86
2023/04/17 12:26:13;;;;;;;17.23;13.83;;;14.40;99.90;;;;;;4758353;30;20308;-86
2023/04/17 12:28:39;;;;;;;17.60;13.87;;;14.40;99.90;;;;;;4772886;30;20308;-86
2023/04/17 12:31:05;;;;;;;20.50;14.80;;;14.40;99.90;;;;;;4773690;30;20308;-86
2023/04/17 12:33:31;;;;;;;19.17;14.20;;;14.50;99.90;;;;;;4773866;30;20404;-86